createdAt,value
2018-12-20T00:02:01.201Z,22.37
2018-12-20T00:04:32.449Z,24.43
2018-12-20T00:07:03.497Z,23.00
2018-12-20T00:09:34.757Z,22.27
2018-12-20T00:12:08.547Z,26.17
2018-12-20T00:14:39.648Z,23.70
2018-12-20T00:17:15.307Z,18.43
2018-12-20T00:19:46.289Z,23.27
2018-12-20T00:22:17.497Z,22.00
2018-12-20T00:24:48.573Z,19.87
2018-12-20T00:27:20.094Z,21.80
2018-12-20T00:29:51.041Z,19.17
2018-12-20T00:32:22.259Z,18.07
2018-12-20T00:34:53.439Z,18.00
2018-12-20T00:37:24.809Z,19.73
2018-12-20T00:39:55.585Z,16.10
2018-12-20T00:42:26.669Z,15.03
2018-12-20T00:44:57.586Z,15.70
2018-12-20T00:47:28.632Z,15.77
2018-12-20T00:49:59.514Z,18.00
2018-12-20T00:52:30.482Z,15.90
2018-12-20T00:55:01.514Z,16.30
2018-12-20T00:57:32.480Z,16.40
2018-12-20T01:00:04.368Z,20.43
2018-12-20T01:02:35.238Z,18.07
2018-12-20T01:05:06.490Z,18.33
2018-12-20T01:07:37.405Z,18.03
2018-12-20T01:10:08.822Z,14.37
2018-12-20T01:12:40.105Z,14.47
2018-12-20T01:15:12.266Z,11.77
2018-12-20T01:17:43.165Z,14.43
2018-12-20T01:20:14.361Z,11.33
2018-12-20T01:22:45.331Z,12.13
2018-12-20T01:25:16.019Z,11.70
2018-12-20T01:27:47.197Z,11.83
2018-12-20T01:30:18.194Z,13.50
2018-12-20T01:32:49.062Z,10.67
2018-12-20T01:35:20.034Z,14.73
2018-12-20T01:37:50.865Z,13.90
2018-12-20T01:40:21.791Z,13.63
2018-12-20T01:42:52.727Z,12.37
2018-12-20T01:45:23.745Z,13.00
2018-12-20T01:47:54.864Z,13.23
2018-12-20T01:50:25.941Z,15.37
2018-12-20T01:52:56.945Z,16.67
2018-12-20T01:55:28.699Z,13.40
2018-12-20T01:57:59.860Z,15.67
2018-12-20T02:00:30.947Z,15.47
2018-12-20T02:03:01.700Z,17.30
2018-12-20T02:05:33.358Z,13.20
2018-12-20T02:08:05.121Z,13.20
2018-12-20T02:10:35.953Z,13.87
2018-12-20T02:13:07.061Z,12.30
2018-12-20T02:15:38.015Z,12.27
2018-12-20T02:18:08.988Z,12.23
2018-12-20T02:20:40.000Z,13.83
2018-12-20T02:23:11.030Z,13.70
2018-12-20T02:25:42.746Z,12.77
2018-12-20T02:28:14.075Z,15.70
2018-12-20T02:30:45.672Z,15.17
2018-12-20T02:33:17.406Z,14.60
2018-12-20T02:35:49.064Z,13.77
2018-12-20T02:38:19.937Z,19.03
2018-12-20T02:40:51.611Z,14.33
2018-12-20T02:43:22.648Z,15.73
2018-12-20T02:45:54.682Z,17.33
2018-12-20T02:48:25.651Z,22.10
2018-12-20T02:50:56.591Z,18.60
2018-12-20T02:53:27.413Z,17.90
2018-12-20T02:55:58.570Z,17.30
2018-12-20T02:58:29.763Z,16.77
2018-12-20T03:01:00.626Z,18.87
2018-12-20T03:03:31.281Z,18.33
2018-12-20T03:06:02.261Z,16.17
2018-12-20T03:08:33.071Z,20.50
2018-12-20T03:11:04.428Z,19.10
2018-12-20T03:13:35.278Z,19.13
2018-12-20T03:16:06.245Z,17.13
2018-12-20T03:18:36.948Z,18.40
2018-12-20T03:21:08.403Z,21.20
2018-12-20T03:23:39.285Z,17.20
2018-12-20T03:26:10.317Z,17.93
2018-12-20T03:28:41.308Z,16.27
2018-12-20T03:31:12.662Z,16.43
2018-12-20T03:33:44.003Z,18.53
2018-12-20T03:36:15.127Z,20.77
2018-12-20T03:38:46.074Z,20.43
2018-12-20T03:41:16.971Z,14.53
2018-12-20T03:43:47.910Z,14.83
2018-12-20T03:46:18.918Z,15.33
2018-12-20T03:48:50.157Z,19.80
2018-12-20T03:51:20.745Z,18.70
2018-12-20T03:53:51.630Z,17.87
2018-12-20T03:56:22.988Z,20.43
2018-12-20T03:58:53.809Z,15.50
2018-12-20T04:01:24.673Z,16.40
2018-12-20T04:03:56.160Z,13.93
2018-12-20T04:06:27.061Z,13.73
2018-12-20T04:08:58.054Z,13.50
2018-12-20T04:11:28.867Z,13.90
2018-12-20T04:13:59.444Z,13.40
2018-12-20T04:16:30.247Z,12.20
2018-12-20T04:19:01.200Z,14.33
2018-12-20T04:21:36.179Z,13.07
2018-12-20T04:24:07.389Z,13.43
2018-12-20T04:26:40.383Z,13.73
2018-12-20T04:29:11.804Z,12.97
2018-12-20T04:31:45.786Z,15.30
2018-12-20T04:34:17.171Z,20.67
2018-12-20T04:36:49.243Z,20.17
2018-12-20T04:39:22.087Z,23.17
2018-12-20T04:41:53.116Z,20.40
2018-12-20T04:44:24.812Z,16.50
2018-12-20T04:46:59.612Z,15.67
2018-12-20T04:49:31.837Z,18.57
2018-12-20T04:52:03.715Z,13.70
2018-12-20T04:54:34.544Z,13.10
2018-12-20T04:57:06.068Z,15.57
2018-12-20T04:59:37.959Z,14.07
2018-12-20T05:02:09.841Z,13.80
2018-12-20T05:04:45.552Z,14.53
2018-12-20T05:07:17.074Z,12.47
2018-12-20T05:09:48.783Z,15.83
2018-12-20T05:12:21.118Z,12.30
2018-12-20T05:14:53.242Z,14.63
2018-12-20T05:17:25.078Z,14.20
2018-12-20T05:19:56.636Z,12.87
2018-12-20T05:22:29.183Z,12.90
2018-12-20T05:25:01.885Z,15.67
2018-12-20T05:27:33.135Z,12.77
2018-12-20T05:30:04.399Z,12.23
2018-12-20T05:32:36.975Z,12.00
2018-12-20T05:35:08.368Z,11.50
2018-12-20T05:37:40.738Z,14.40
2018-12-20T05:40:11.973Z,13.80
2018-12-20T05:42:42.996Z,13.73
2018-12-20T05:45:15.322Z,12.63
2018-12-20T05:47:49.060Z,12.80
2018-12-20T05:50:22.217Z,13.23
2018-12-20T05:52:54.137Z,17.00
2018-12-20T05:55:25.683Z,10.97
2018-12-20T06:00:39.918Z,11.73
2018-12-20T06:03:10.926Z,12.60
2018-12-20T06:05:41.974Z,13.43
2018-12-20T06:08:12.893Z,18.93
2018-12-20T06:10:43.752Z,18.30
2018-12-20T06:13:14.699Z,14.10
2018-12-20T06:15:45.813Z,14.57
2018-12-20T06:18:16.859Z,13.80
2018-12-20T06:20:48.725Z,15.07
2018-12-20T06:23:19.339Z,16.27
2018-12-20T06:25:51.103Z,21.13
2018-12-20T06:28:22.295Z,18.03
2018-12-20T06:30:53.418Z,29.70
2018-12-20T06:33:24.414Z,21.13
2018-12-20T06:35:55.225Z,14.93
2018-12-20T06:38:25.976Z,16.40
2018-12-20T06:40:56.669Z,17.57
2018-12-20T06:43:27.490Z,14.47
2018-12-20T06:45:58.252Z,18.17
2018-12-20T06:48:29.264Z,15.73
2018-12-20T06:51:00.281Z,16.23
2018-12-20T06:53:31.039Z,16.37
2018-12-20T06:56:03.226Z,15.83
2018-12-20T06:58:34.139Z,23.73
2018-12-20T07:01:05.068Z,18.63
2018-12-20T07:03:36.531Z,15.80
2018-12-20T07:06:07.355Z,14.37
2018-12-20T07:08:38.649Z,13.80
2018-12-20T07:11:09.711Z,21.17
2018-12-20T07:13:40.808Z,17.40
2018-12-20T07:16:11.504Z,14.90
2018-12-20T07:18:42.371Z,15.57
2018-12-20T07:21:13.233Z,18.10
2018-12-20T07:23:44.834Z,20.20
2018-12-20T07:26:16.303Z,17.93
2018-12-20T07:28:47.175Z,18.43
2018-12-20T07:31:18.554Z,19.10
2018-12-20T07:33:49.766Z,54.17
2018-12-20T07:36:21.164Z,17.87
2018-12-20T07:38:52.088Z,17.70
2018-12-20T07:41:23.090Z,20.00
2018-12-20T07:43:54.307Z,18.03
2018-12-20T07:46:25.646Z,21.93
2018-12-20T07:48:56.853Z,20.77
2018-12-20T07:51:28.586Z,21.30
2018-12-20T07:53:59.741Z,19.30
2018-12-20T07:56:31.000Z,23.20
2018-12-20T07:59:02.386Z,20.30
2018-12-20T08:01:33.806Z,19.30
2018-12-20T08:04:05.042Z,21.17
2018-12-20T08:06:36.283Z,20.23
2018-12-20T08:09:10.001Z,26.77
2018-12-20T08:11:41.148Z,16.30
2018-12-20T08:14:12.475Z,18.10
2018-12-20T08:16:46.424Z,15.97
2018-12-20T08:19:19.756Z,13.53
2018-12-20T08:21:56.384Z,17.07
2018-12-20T08:24:31.158Z,14.57
2018-12-20T08:27:05.748Z,16.70
2018-12-20T08:29:36.979Z,16.60
2018-12-20T08:32:10.389Z,17.43
2018-12-20T08:34:43.089Z,18.67
2018-12-20T08:37:15.289Z,24.80
2018-12-20T08:39:46.892Z,31.97
2018-12-20T08:42:18.972Z,34.27
2018-12-20T08:44:50.820Z,30.37
2018-12-20T08:47:22.259Z,71.30
2018-12-20T08:49:54.696Z,18.33
2018-12-20T08:52:29.265Z,14.47
2018-12-20T08:55:02.623Z,16.17
2018-12-20T08:57:34.367Z,13.47
2018-12-20T09:00:07.601Z,14.00
2018-12-20T09:02:39.803Z,13.50
2018-12-20T09:05:11.303Z,14.67
2018-12-20T09:07:42.618Z,12.13
2018-12-20T09:10:14.416Z,16.53
2018-12-20T09:12:45.775Z,14.17
2018-12-20T09:15:18.011Z,10.10
2018-12-20T09:17:51.513Z,18.83
2018-12-20T09:20:32.537Z,21.13
2018-12-20T09:22:58.601Z,13.63
2018-12-20T09:25:30.875Z,12.60
2018-12-20T09:28:03.140Z,12.27
2018-12-20T09:30:35.717Z,12.67
2018-12-20T09:33:08.643Z,15.13
2018-12-20T09:35:40.572Z,17.47
2018-12-20T09:38:11.378Z,14.27
2018-12-20T09:40:42.881Z,9.13
2018-12-20T09:43:16.106Z,12.03
2018-12-20T09:45:48.517Z,11.93
2018-12-20T09:48:23.194Z,13.77
2018-12-20T09:50:55.516Z,12.60
2018-12-20T09:53:28.948Z,11.37
2018-12-20T09:56:00.318Z,14.03
2018-12-20T09:58:34.569Z,18.37
2018-12-20T10:01:07.306Z,14.97
2018-12-20T10:03:40.541Z,17.53
2018-12-20T10:06:13.742Z,15.40
2018-12-20T10:08:48.068Z,15.87
2018-12-20T10:11:21.002Z,11.30
2018-12-20T10:13:54.131Z,48.77
2018-12-20T10:16:26.181Z,35.83
2018-12-20T10:18:58.553Z,25.00
2018-12-20T10:21:34.654Z,25.90
2018-12-20T10:24:07.170Z,21.43
2018-12-20T10:26:39.157Z,12.93
2018-12-20T10:29:12.623Z,14.27
2018-12-20T10:31:44.704Z,16.20
2018-12-20T10:34:17.188Z,24.07
2018-12-20T10:36:49.809Z,19.87
2018-12-20T10:39:23.889Z,17.70
2018-12-20T10:41:57.702Z,15.60
2018-12-20T10:44:33.051Z,13.33
2018-12-20T10:47:09.988Z,15.77
2018-12-20T10:49:44.979Z,17.77
2018-12-20T10:52:16.643Z,15.67
2018-12-20T10:54:49.902Z,14.67
2018-12-20T10:57:22.521Z,18.10
2018-12-20T10:59:57.632Z,20.03
2018-12-20T11:02:35.145Z,28.23
2018-12-20T11:05:13.003Z,23.83
2018-12-20T11:07:50.128Z,32.57
2018-12-20T11:10:27.344Z,30.30
2018-12-20T11:13:00.991Z,21.57
2018-12-20T11:15:33.342Z,21.37
2018-12-20T11:18:07.097Z,20.70
2018-12-20T11:20:39.409Z,22.67
2018-12-20T11:23:11.468Z,27.93
2018-12-20T11:25:42.436Z,35.27
2018-12-20T11:28:15.712Z,25.73
2018-12-20T11:30:48.836Z,25.57
2018-12-20T11:35:56.810Z,23.70
2018-12-20T11:38:29.303Z,21.87
2018-12-20T11:41:01.802Z,18.07
2018-12-20T11:43:34.696Z,23.73
2018-12-20T11:46:06.147Z,22.10
2018-12-20T11:48:39.749Z,14.80
2018-12-20T11:51:12.353Z,14.57
2018-12-20T11:53:43.993Z,11.17
2018-12-20T11:56:17.040Z,11.83
2018-12-20T11:58:50.518Z,14.20
2018-12-20T12:01:23.300Z,11.83
2018-12-20T12:03:57.516Z,9.33
2018-12-20T12:06:28.927Z,17.53
2018-12-20T12:09:02.105Z,13.73
2018-12-20T12:11:33.900Z,13.17
2018-12-20T12:14:06.619Z,7.67
2018-12-20T12:16:38.814Z,11.03
2018-12-20T12:19:10.988Z,7.93
2018-12-20T12:21:42.686Z,11.13
2018-12-20T12:24:16.370Z,12.00
2018-12-20T12:26:50.144Z,8.90
2018-12-20T12:29:24.938Z,9.87
2018-12-20T12:31:56.361Z,12.60
2018-12-20T12:34:29.542Z,9.87
2018-12-20T12:37:05.497Z,11.77
2018-12-20T12:39:36.832Z,14.20
2018-12-20T12:42:09.041Z,8.63
2018-12-20T12:44:40.305Z,14.13
2018-12-20T12:47:12.449Z,13.87
2018-12-20T12:49:43.807Z,13.80
2018-12-20T12:52:15.818Z,9.97
2018-12-20T12:54:53.815Z,64.73
2018-12-20T12:57:25.712Z,11.40
2018-12-20T12:59:58.170Z,7.73
2018-12-20T13:02:32.453Z,7.60
2018-12-20T13:05:04.709Z,12.03
2018-12-20T13:07:37.639Z,14.20
2018-12-20T13:10:10.265Z,31.87
2018-12-20T13:12:42.898Z,8.50
2018-12-20T13:15:14.097Z,10.13
2018-12-20T13:17:46.600Z,15.73
2018-12-20T13:20:19.692Z,12.67
2018-12-20T13:22:52.207Z,9.20
2018-12-20T13:25:24.246Z,15.20
2018-12-20T13:27:57.236Z,11.70
2018-12-20T13:30:29.816Z,10.93
2018-12-20T13:33:02.032Z,14.83
2018-12-20T13:35:34.757Z,11.90
2018-12-20T13:38:10.621Z,13.47
2018-12-20T13:40:45.818Z,12.90
2018-12-20T13:43:18.721Z,12.90
2018-12-20T13:45:50.169Z,9.37
2018-12-20T13:48:22.324Z,21.70
2018-12-20T13:50:57.428Z,8.20
2018-12-20T13:53:29.935Z,73.60
2018-12-20T13:56:02.020Z,77.50
2018-12-20T13:58:35.112Z,39.57
2018-12-20T14:01:07.047Z,15.60
2018-12-20T14:03:39.542Z,68.03
2018-12-20T14:06:11.501Z,12.60
2018-12-20T14:08:43.748Z,19.50
2018-12-20T14:11:16.327Z,9.87
2018-12-20T14:13:50.441Z,13.07
2018-12-20T14:16:24.659Z,49.90
2018-12-20T14:18:56.985Z,31.13
2018-12-20T14:21:32.020Z,15.40
2018-12-20T14:24:04.529Z,55.83
2018-12-20T14:26:37.876Z,12.97
2018-12-20T14:29:09.873Z,12.60
2018-12-20T14:31:42.325Z,12.37
2018-12-20T14:34:17.305Z,29.13
2018-12-20T14:36:50.438Z,10.50
2018-12-20T14:39:23.257Z,11.93
2018-12-20T14:41:56.248Z,10.20
2018-12-20T14:44:28.294Z,12.93
2018-12-20T14:46:59.507Z,12.03
2018-12-20T14:49:33.027Z,36.30
2018-12-20T14:52:05.464Z,14.77
2018-12-20T14:54:38.453Z,17.50
2018-12-20T14:57:12.193Z,108.53
2018-12-20T14:59:45.383Z,48.70
2018-12-20T15:02:18.257Z,30.27
2018-12-20T15:04:50.440Z,143.60
2018-12-20T15:07:22.258Z,44.47
2018-12-20T15:09:54.985Z,20.90
2018-12-20T15:12:27.502Z,15.73
2018-12-20T15:14:59.292Z,16.73
2018-12-20T15:17:32.497Z,22.07
2018-12-20T15:20:04.814Z,20.87
2018-12-20T15:22:37.743Z,20.83
2018-12-20T15:25:10.957Z,26.57
2018-12-20T15:27:44.446Z,17.60
2018-12-20T15:30:16.425Z,14.30
2018-12-20T15:32:56.165Z,13.57
2018-12-20T15:35:30.361Z,12.17
2018-12-20T15:38:03.723Z,21.00
2018-12-20T15:40:37.266Z,14.57
2018-12-20T15:43:09.055Z,20.33
2018-12-20T15:45:40.811Z,26.30
2018-12-20T15:48:17.481Z,25.53
2018-12-20T15:53:33.689Z,18.47
2018-12-20T15:56:04.979Z,22.30
2018-12-20T15:58:36.621Z,25.23
2018-12-20T16:01:08.212Z,18.63
2018-12-20T16:03:39.428Z,33.60
2018-12-20T16:06:10.630Z,37.03
2018-12-20T16:08:41.688Z,50.00
2018-12-20T16:11:13.958Z,45.57
2018-12-20T16:13:46.782Z,45.80
2018-12-20T16:16:18.321Z,30.80
2018-12-20T16:18:49.787Z,63.03
2018-12-20T16:21:21.646Z,48.30
2018-12-20T16:23:52.987Z,23.47
2018-12-20T16:26:23.868Z,20.83
2018-12-20T16:28:55.443Z,20.30
2018-12-20T16:31:26.715Z,26.87
2018-12-20T16:33:57.984Z,22.83
2018-12-20T16:36:30.453Z,18.13
2018-12-20T16:39:02.559Z,23.47
2018-12-20T16:41:34.852Z,41.33
2018-12-20T16:44:07.034Z,36.40
2018-12-20T16:46:39.029Z,39.93
2018-12-20T16:49:13.763Z,35.53
2018-12-20T16:51:44.177Z,38.23
2018-12-20T16:54:17.061Z,49.53
2018-12-20T16:56:48.982Z,41.53
2018-12-20T16:59:21.603Z,37.40
2018-12-20T17:01:52.864Z,55.67
2018-12-20T17:04:26.763Z,43.97
2018-12-20T17:06:58.273Z,46.03
2018-12-20T17:09:29.818Z,42.40
2018-12-20T17:12:01.001Z,41.03
2018-12-20T17:14:32.300Z,43.77
2018-12-20T17:17:03.704Z,43.80
2018-12-20T17:19:35.763Z,54.23
2018-12-20T17:22:08.436Z,50.73
2018-12-20T17:24:40.434Z,45.37
2018-12-20T17:27:12.127Z,46.43
2018-12-20T17:29:43.734Z,45.67
2018-12-20T17:32:17.497Z,58.67
2018-12-20T17:34:49.252Z,109.27
2018-12-20T17:37:20.779Z,69.60
2018-12-20T17:39:53.271Z,69.73
2018-12-20T17:42:24.855Z,67.87
2018-12-20T17:44:56.807Z,54.40
2018-12-20T17:47:28.357Z,56.27
2018-12-20T17:50:00.434Z,81.17
2018-12-20T17:52:32.195Z,127.93
2018-12-20T17:55:04.471Z,123.27
2018-12-20T17:57:36.281Z,127.60
2018-12-20T18:00:10.495Z,66.30
2018-12-20T18:02:41.793Z,61.03
2018-12-20T18:05:13.527Z,64.27
2018-12-20T18:07:45.179Z,44.47
2018-12-20T18:10:16.714Z,43.23
2018-12-20T18:12:49.112Z,55.47
2018-12-20T18:15:20.551Z,50.73
2018-12-20T18:17:52.850Z,56.53
2018-12-20T18:20:24.159Z,75.50
2018-12-20T18:22:56.511Z,77.70
2018-12-20T18:25:28.116Z,70.67
2018-12-20T18:27:59.655Z,53.30
2018-12-20T18:30:30.656Z,44.10
2018-12-20T18:33:02.273Z,38.23
2018-12-20T18:35:33.649Z,46.30
2018-12-20T18:38:05.428Z,36.63
2018-12-20T18:40:37.345Z,37.70
2018-12-20T18:43:09.557Z,42.40
2018-12-20T18:45:42.252Z,34.23
2018-12-20T18:48:13.749Z,52.73
2018-12-20T18:50:44.717Z,84.03
2018-12-20T18:53:16.419Z,90.77
2018-12-20T18:55:47.383Z,56.37
2018-12-20T18:58:18.666Z,69.73
2018-12-20T19:00:49.947Z,64.60
2018-12-20T19:03:21.064Z,89.40
2018-12-20T19:05:52.416Z,97.17
2018-12-20T19:08:24.015Z,78.70
2018-12-20T19:10:55.819Z,63.03
2018-12-20T19:13:27.163Z,53.10
2018-12-20T19:15:58.720Z,50.17
2018-12-20T19:18:29.600Z,133.23
2018-12-20T19:21:00.775Z,97.93
2018-12-20T19:23:31.668Z,67.23
2018-12-20T19:26:04.415Z,128.93
2018-12-20T19:28:35.922Z,46.20
2018-12-20T19:31:07.577Z,179.90
2018-12-20T19:33:38.991Z,61.90
2018-12-20T19:36:10.620Z,50.53
2018-12-20T19:38:42.164Z,70.73
2018-12-20T19:41:14.336Z,70.33
2018-12-20T19:43:45.997Z,64.00
2018-12-20T19:46:17.940Z,63.23
2018-12-20T19:48:49.296Z,50.90
2018-12-20T19:51:20.822Z,36.97
2018-12-20T19:53:53.036Z,54.63
2018-12-20T19:56:24.196Z,147.37
2018-12-20T19:58:55.853Z,157.87
2018-12-20T20:01:27.531Z,217.13
2018-12-20T20:03:59.399Z,353.53
2018-12-20T20:06:30.543Z,343.17
2018-12-20T20:09:02.584Z,410.97
2018-12-20T20:11:33.824Z,702.13
2018-12-20T20:14:05.318Z,1344.00
2018-12-20T20:16:37.022Z,508.50
2018-12-20T20:19:09.218Z,448.93
2018-12-20T20:21:42.193Z,278.90
2018-12-20T20:24:14.784Z,354.73
2018-12-20T20:26:47.140Z,183.13
2018-12-20T20:29:18.938Z,224.23
2018-12-20T20:31:50.682Z,222.83
2018-12-20T20:34:23.802Z,179.80
2018-12-20T20:36:55.414Z,252.73
2018-12-20T20:39:27.674Z,266.13
2018-12-20T20:41:59.331Z,195.70
2018-12-20T20:44:32.459Z,219.80
2018-12-20T20:47:04.170Z,279.80
2018-12-20T20:49:35.794Z,310.80
2018-12-20T20:52:08.101Z,295.40
2018-12-20T20:54:41.141Z,161.70
2018-12-20T20:57:12.635Z,171.93
2018-12-20T20:59:50.801Z,211.67
2018-12-20T21:02:19.204Z,181.77
2018-12-20T21:04:50.483Z,187.07
2018-12-20T21:07:22.643Z,175.87
2018-12-20T21:09:54.030Z,163.40
2018-12-20T21:12:25.310Z,235.27
2018-12-20T21:14:56.820Z,199.63
2018-12-20T21:17:28.222Z,422.50
2018-12-20T21:19:59.633Z,325.30
2018-12-20T21:22:30.980Z,219.90
2018-12-20T21:25:02.765Z,246.60
2018-12-20T21:27:33.972Z,443.77
2018-12-20T21:30:09.889Z,152.13
2018-12-20T21:32:41.440Z,205.27
2018-12-20T21:35:12.573Z,176.63
2018-12-20T21:37:43.639Z,75.93
2018-12-20T21:40:14.833Z,125.80
2018-12-20T21:42:46.109Z,195.77
2018-12-20T21:45:17.301Z,211.67
2018-12-20T21:47:48.476Z,268.87
2018-12-20T21:50:19.970Z,267.77
2018-12-20T21:52:51.015Z,115.83
2018-12-20T21:55:22.387Z,154.07
2018-12-20T21:57:55.492Z,193.53
2018-12-20T22:00:27.419Z,310.83
2018-12-20T22:02:58.969Z,142.03
2018-12-20T22:05:30.360Z,278.67
2018-12-20T22:08:02.126Z,463.35
2018-12-20T22:10:34.583Z,454.03
2018-12-20T22:13:06.725Z,308.37
2018-12-20T22:15:38.049Z,253.75
2018-12-20T22:18:10.397Z,191.95
2018-12-20T22:20:47.238Z,228.40
2018-12-20T22:23:15.534Z,431.07
2018-12-20T22:25:47.439Z,206.68
2018-12-20T22:28:19.695Z,103.35
2018-12-20T22:30:50.905Z,428.75
2018-12-20T22:33:22.477Z,345.52
2018-12-20T22:35:54.072Z,320.12
2018-12-20T22:38:25.883Z,269.55
2018-12-20T22:40:57.605Z,231.90
2018-12-20T22:43:28.959Z,102.53
2018-12-20T22:46:00.751Z,142.22
2018-12-20T22:48:32.265Z,164.28
2018-12-20T22:51:05.480Z,161.52
2018-12-20T22:53:37.094Z,156.15
2018-12-20T22:56:11.707Z,350.62
2018-12-20T22:58:44.562Z,173.22
2018-12-20T23:01:17.150Z,192.03
2018-12-20T23:03:49.781Z,297.63
2018-12-20T23:06:21.748Z,516.42
2018-12-20T23:08:54.167Z,470.12
2018-12-20T23:11:25.755Z,264.88
2018-12-20T23:13:57.324Z,231.90
2018-12-20T23:16:28.937Z,197.60
2018-12-20T23:19:01.671Z,298.30
2018-12-20T23:21:32.907Z,151.60
2018-12-20T23:24:05.804Z,285.65
2018-12-20T23:26:36.838Z,163.10
2018-12-20T23:29:08.262Z,415.30
2018-12-20T23:31:39.237Z,245.07
2018-12-20T23:34:10.539Z,114.55
2018-12-20T23:36:41.755Z,235.55
2018-12-20T23:39:13.093Z,327.60
2018-12-20T23:41:44.147Z,235.57
2018-12-20T23:44:15.566Z,151.35
2018-12-20T23:46:46.733Z,197.00
2018-12-20T23:49:18.033Z,166.17
2018-12-20T23:51:50.076Z,428.92
2018-12-20T23:54:21.285Z,260.77
2018-12-20T23:56:52.483Z,158.10
2018-12-20T23:59:23.612Z,146.70
